Time;durP1;ratioP1;P1;durP2;ratioP2;P2;SDS_P1;SDS_P2;PMS_P1;PMS_P2;Temp;Humidity;BMP_temperature;BMP_pressure;BME280_temperature;BME280_humidity;BME280_pressure;Samples;Min_cycle;Max_cycle;Signal;HPM_P1;HPM_P2
2022/07/06 00:01:19;;;;;;;;;;;;;;;15.44;100.00;101248.94;4949594;29;19915;-80
2022/07/06 00:03:44;;;;;;;;;;;;;;;15.45;100.00;101242.47;4952857;29;19903;-80
2022/07/06 00:06:09;;;;;;;;;;;;;;;15.48;100.00;101247.44;4924452;29;19930;-81
2022/07/06 00:08:34;;;;;;;;;;;;;;;15.50;100.00;101246.19;4933595;29;19996;-80
2022/07/06 00:11:00;;;;;;;;;;;;;;;15.54;100.00;101248.44;4934234;29;19986;-80
2022/07/06 00:13:26;;;;;;;;;;;;;;;15.57;100.00;101245.28;4946741;29;19919;-80
2022/07/06 00:15:51;;;;;;;;;;;;;;;15.57;100.00;101245.28;4934461;29;19923;-80
2022/07/06 00:18:16;;;;;;;;;;;;;;;15.57;100.00;101238.00;4931922;29;20348;-80
2022/07/06 00:20:42;;;;;;;;;;;;;;;15.56;100.00;101241.72;4949523;29;20337;-80
2022/07/06 00:23:07;;;;;;;;;;;;;;;15.63;100.00;101241.66;4949109;29;20237;-81
2022/07/06 00:25:32;;;;;;;;;;;;;;;15.62;100.00;101254.41;4949944;29;19925;-80
2022/07/06 00:27:57;;;;;;;;;;;;;;;15.61;100.00;101241.91;4932405;29;19929;-80
2022/07/06 00:30:23;;;;;;;;;;;;;;;15.62;100.00;101248.16;4942276;29;20010;-80
2022/07/06 00:32:49;;;;;;;;;;;;;;;15.61;100.00;101254.66;4912613;29;19955;-80
2022/07/06 00:35:14;;;;;;;;;;;;;;;15.59;100.00;101251.31;4930486;29;19943;-80
2022/07/06 00:37:39;;;;;;;;;;;;;;;15.56;100.00;101249.03;4948057;29;19930;-80
2022/07/06 00:40:05;;;;;;;;;;;;;;;15.55;100.00;101241.97;4950470;29;19947;-80
2022/07/06 00:42:38;;;;;;;;;;;;;;;15.55;100.00;101250.09;4916584;29;19923;-80
2022/07/06 00:45:03;;;;;;;;;;;;;;;15.54;100.00;101256.59;4948812;29;19946;-80
2022/07/06 00:47:29;;;;;;;;;;;;;;;15.49;100.00;101247.22;4916832;29;19935;-80
2022/07/06 00:52:38;;;;;;;;;;;;;;;15.47;100.00;101246.63;4949898;29;19947;-80
2022/07/06 00:55:04;;;;;;;;;;;;;;;15.46;100.00;101234.13;4932496;29;19919;-80
2022/07/06 00:57:29;;;;;;;;;;;;;;;15.50;100.00;101243.47;4932374;29;19918;-80
2022/07/06 00:59:54;;;;;;;;;;;;;;;15.48;100.00;101242.03;4943226;29;19930;-80
2022/07/06 01:02:22;;;;;;;;;;;;;;;15.46;100.00;101239.53;4949668;29;19919;-80
2022/07/06 01:04:47;;;;;;;;;;;;;;;15.49;100.00;101239.06;4914715;29;19919;-80
2022/07/06 01:07:12;;;;;;;;;;;;;;;15.50;100.00;101238.03;4947048;29;20036;-80
2022/07/06 01:09:38;;;;;;;;;;;;;;;15.54;100.00;101235.72;4931913;29;19954;-80
2022/07/06 01:12:04;;;;;;;;;;;;;;;15.50;100.00;101234.50;4933128;29;19930;-80
2022/07/06 01:14:30;;;;;;;;;;;;;;;15.46;100.00;101236.81;4933940;29;19934;-80
2022/07/06 01:16:56;;;;;;;;;;;;;;;15.45;100.00;101232.44;4938663;29;19923;-80
2022/07/06 01:19:22;;;;;;;;;;;;;;;15.46;99.98;101234.13;4953343;29;20265;-80
2022/07/06 01:21:47;;;;;;;;;;;;;;;15.40;100.00;101229.56;4914601;29;19930;-80
2022/07/06 01:24:12;;;;;;;;;;;;;;;15.38;100.00;101234.38;4936448;29;20447;-81
2022/07/06 01:26:37;;;;;;;;;;;;;;;15.38;100.00;101228.13;4927969;29;19919;-80
2022/07/06 01:29:03;;;;;;;;;;;;;;;15.37;100.00;101232.72;4947249;29;19982;-81
2022/07/06 01:31:28;;;;;;;;;;;;;;;15.36;99.76;101241.88;4930026;29;19918;-80
2022/07/06 01:33:57;;;;;;;;;;;;;;;15.34;99.85;101238.59;4931116;29;19934;-81
2022/07/06 01:36:22;;;;;;;;;;;;;;;15.38;99.02;101234.38;4947634;29;19926;-80
2022/07/06 01:38:52;;;;;;;;;;;;;;;15.34;99.94;101235.88;4948861;29;19915;-80
2022/07/06 01:41:18;;;;;;;;;;;;;;;15.29;100.00;101232.97;4947122;29;19918;-80
2022/07/06 01:43:43;;;;;;;;;;;;;;;15.23;100.00;101233.84;4946781;29;20253;-80
2022/07/06 01:46:09;;;;;;;;;;;;;;;15.21;100.00;101225.94;4942949;29;19971;-80
2022/07/06 01:48:34;;;;;;;;;;;;;;;15.16;100.00;101238.50;4947650;29;19925;-80
2022/07/06 01:50:59;;;;;;;;;;;;;;;15.17;100.00;101230.16;4914499;29;19929;-80
2022/07/06 01:53:24;;;;;;;;;;;;;;;15.12;100.00;101229.13;4946407;29;19950;-80
2022/07/06 01:55:50;;;;;;;;;;;;;;;15.11;100.00;101232.91;4931402;29;19915;-80
2022/07/06 01:58:15;;;;;;;;;;;;;;;15.14;100.00;101224.34;4930039;29;19966;-80
2022/07/06 02:00:40;;;;;;;;;;;;;;;15.16;100.00;101223.06;4931108;29;19942;-80
2022/07/06 02:03:05;;;;;;;;;;;;;;;15.17;100.00;101223.91;4929781;29;19923;-80
2022/07/06 02:05:31;;;;;;;;;;;;;;;15.14;100.00;101224.34;4948369;29;19925;-80
2022/07/06 02:07:56;;;;;;;;;;;;;;;15.16;100.00;101224.94;4923697;29;20489;-81
2022/07/06 02:10:21;;;;;;;;;;;;;;;15.19;100.00;101230.75;4938411;29;19918;-80
2022/07/06 02:12:47;;;;;;;;;;;;;;;15.16;100.00;101219.50;4913177;29;19962;-80
2022/07/06 02:15:19;;;;;;;;;;;;;;;15.19;100.00;101232.63;4929468;29;19919;-80
2022/07/06 02:17:44;;;;;;;;;;;;;;;15.16;100.00;101236.59;4928751;29;19948;-80
2022/07/06 02:20:10;;;;;;;;;;;;;;;15.17;100.00;101224.72;4930248;29;19918;-80
2022/07/06 02:22:35;;;;;;;;;;;;;;;15.16;100.00;101228.47;4943880;29;19919;-80
2022/07/06 02:25:00;;;;;;;;;;;;;;;15.17;100.00;101230.16;4927867;29;19951;-80
2022/07/06 02:27:26;;;;;;;;;;;;;;;15.15;100.00;101228.72;4933077;29;19919;-80
2022/07/06 02:29:51;;;;;;;;;;;;;;;15.14;100.00;101227.06;4941519;29;19958;-81
2022/07/06 02:32:16;;;;;;;;;;;;;;;15.15;100.00;101226.81;4945020;29;20163;-80
2022/07/06 02:34:42;;;;;;;;;;;;;;;15.19;100.00;101222.63;4929095;29;20281;-80
2022/07/06 02:37:07;;;;;;;;;;;;;;;15.18;100.00;101222.84;4927435;29;19914;-80
2022/07/06 02:39:33;;;;;;;;;;;;;;;15.16;100.00;101223.06;4945671;29;19926;-80
2022/07/06 02:41:58;;;;;;;;;;;;;;;15.19;100.00;101219.91;4928033;29;20277;-81
2022/07/06 02:44:23;;;;;;;;;;;;;;;15.23;100.00;101213.00;4912414;29;19926;-80
2022/07/06 02:46:48;;;;;;;;;;;;;;;15.36;100.00;101216.66;4929177;29;19937;-80
2022/07/06 02:49:13;;;;;;;;;;;;;;;15.82;100.00;101220.88;4928048;29;19919;-80
2022/07/06 02:51:39;;;;;;;;;;;;;;;16.26;99.33;101217.09;4928129;29;19946;-80
2022/07/06 02:54:04;;;;;;;;;;;;;;;16.63;98.59;101219.75;4920437;29;19982;-80
2022/07/06 02:56:29;;;;;;;;;;;;;;;16.95;96.22;101217.66;4932520;29;19919;-80
2022/07/06 02:58:54;;;;;;;;;;;;;;;17.34;94.98;101213.50;4916084;29;19927;-80
2022/07/06 03:01:20;;;;;;;;;;;;;;;17.52;93.03;101223.47;4932971;29;19977;-80
2022/07/06 03:03:45;;;;;;;;;;;;;;;17.75;90.79;101217.22;4931962;29;19973;-80
2022/07/06 03:06:10;;;;;;;;;;;;;;;18.00;90.15;101218.88;4950063;29;19915;-81
2022/07/06 03:08:35;;;;;;;;;;;;;;;18.12;88.51;101219.72;4934518;29;19971;-80
2022/07/06 03:11:09;;;;;;;;;;;;;;;17.68;88.53;101215.66;4918816;29;19946;-79
2022/07/06 03:13:34;;;;;;;;;;;;;;;17.18;90.52;101225.06;4933660;29;19918;-80
2022/07/06 03:15:59;;;;;;;;;;;;;;;16.96;89.09;101215.78;4952460;29;19933;-79
2022/07/06 03:18:25;;;;;;;;;;;;;;;16.76;90.74;101216.06;4919790;29;19923;-80
2022/07/06 03:20:50;;;;;;;;;;;;;;;16.68;90.98;101211.72;4929353;29;20002;-79
2022/07/06 03:23:15;;;;;;;;;;;;;;;16.65;92.51;101215.75;4950990;29;19918;-80
2022/07/06 03:25:40;;;;;;;;;;;;;;;16.61;93.33;101211.00;4932193;29;20085;-80
2022/07/06 03:28:06;;;;;;;;;;;;;;;16.62;93.38;101226.22;4918544;29;20399;-80
2022/07/06 03:30:31;;;;;;;;;;;;;;;16.63;93.90;101220.59;4948389;29;20329;-80
2022/07/06 03:32:56;;;;;;;;;;;;;;;16.71;94.70;101214.00;4949903;29;19929;-80
2022/07/06 03:35:21;;;;;;;;;;;;;;;16.74;94.04;101221.69;4918672;29;19919;-80
2022/07/06 03:37:47;;;;;;;;;;;;;;;16.74;93.02;101218.97;4931791;29;19986;-80
2022/07/06 03:40:12;;;;;;;;;;;;;;;16.80;91.80;101214.53;4952460;29;19903;-80
2022/07/06 03:42:37;;;;;;;;;;;;;;;16.90;90.39;101223.78;4926571;29;19923;-80
2022/07/06 03:45:04;;;;;;;;;;;;;;;17.07;91.07;101225.88;4933085;29;19946;-80
2022/07/06 03:47:29;;;;;;;;;;;;;;;17.12;90.65;101226.84;4948569;29;19931;-80
2022/07/06 03:49:54;;;;;;;;;;;;;;;17.23;91.76;101232.53;4949801;29;19915;-80
2022/07/06 03:52:20;;;;;;;;;;;;;;;18.02;87.05;101233.09;4949131;29;19922;-80
2022/07/06 03:54:45;;;;;;;;;;;;;;;18.97;78.12;101229.06;4953360;29;19919;-80
2022/07/06 03:57:13;;;;;;;;;;;;;;;19.31;73.72;101231.88;4921077;29;19989;-80
2022/07/06 03:59:38;;;;;;;;;;;;;;;19.54;71.56;101237.16;4935848;29;19944;-80
2022/07/06 04:02:03;;;;;;;;;;;;;;;20.23;70.28;101246.94;4920629;29;19986;-81
2022/07/06 04:04:28;;;;;;;;;;;;;;;20.65;69.65;101239.84;4951180;29;19919;-81
2022/07/06 04:06:54;;;;;;;;;;;;;;;20.75;68.51;101238.31;4938709;29;19926;-80
2022/07/06 04:09:19;;;;;;;;;;;;;;;20.81;67.71;101242.75;4955347;29;19915;-80
2022/07/06 04:11:44;;;;;;;;;;;;;;;21.06;65.33;101243.03;4939988;29;19926;-80
2022/07/06 04:14:09;;;;;;;;;;;;;;;20.61;64.84;101246.09;4945932;29;19914;-81
2022/07/06 04:16:35;;;;;;;;;;;;;;;20.88;65.42;101243.38;4940581;29;19982;-81
2022/07/06 04:19:00;;;;;;;;;;;;;;;20.59;64.61;101238.13;4956365;29;19923;-80
2022/07/06 04:21:25;;;;;;;;;;;;;;;20.35;63.14;101242.19;4940307;29;19982;-80
2022/07/06 04:23:50;;;;;;;;;;;;;;;20.22;64.34;101248.00;4940952;29;19965;-80
2022/07/06 04:26:15;;;;;;;;;;;;;;;20.10;67.17;101248.16;4923299;29;19933;-81
2022/07/06 04:28:48;;;;;;;;;;;;;;;20.18;68.38;101237.59;4958004;29;19919;-82
2022/07/06 04:31:15;;;;;;;;;;;;;;;19.74;68.26;101235.88;4931686;29;19927;-80
2022/07/06 04:33:41;;;;;;;;;;;;;;;19.99;68.76;101244.41;4936207;29;19930;-81
2022/07/06 04:36:06;;;;;;;;;;;;;;;19.70;69.54;101241.81;4922244;29;19922;-83
2022/07/06 04:38:31;;;;;;;;;;;;;;;19.62;69.40;101247.66;4952844;29;19954;-82
2022/07/06 04:40:57;;;;;;;;;;;;;;;19.66;69.49;101246.09;4953720;29;19923;-80
2022/07/06 04:43:22;;;;;;;;;;;;;;;19.51;69.97;101239.56;4918596;29;19923;-81
2022/07/06 04:45:47;;;;;;;;;;;;;;;19.44;68.65;101256.09;4942791;29;19966;-82
2022/07/06 04:48:12;;;;;;;;;;;;;;;19.45;68.33;101255.84;5360073;23;19927;-82
2022/07/06 04:50:38;;;;;;;;;;;;;;;19.55;68.80;101263.38;4942113;29;19942;-80
2022/07/06 04:53:03;;;;;;;;;;;;;;;19.47;67.75;101259.16;4923479;29;20277;-81
2022/07/06 04:55:29;;;;;;;;;;;;;;;19.32;68.09;101256.16;4933318;23;19917;-79
2022/07/06 05:00:30;;;;;;;;;;;;;;;19.05;67.90;101272.31;5334547;23;19929;-82
2022/07/06 05:02:55;;;;;;;;;;;;;;;19.22;68.33;101262.25;4955344;28;19934;-82
2022/07/06 05:05:20;;;;;;;;;;;;;;;19.00;68.54;101258.56;5545992;23;19925;-80
2022/07/06 05:12:56;;;;;;;;;;;;;;;18.77;69.82;101278.56;5896092;23;19927;-79
2022/07/06 05:36:03;;;;;;;;;;;;;;;18.38;71.21;101291.94;5337367;23;19935;-82
2022/07/06 05:38:28;;;;;;;;;;;;;;;18.31;71.48;101294.78;4928519;29;19966;-83
2022/07/06 05:43:29;;;;;;;;;;;;;;;18.29;71.13;101283.28;5636635;23;19915;-82
2022/07/06 05:45:54;;;;;;;;;;;;;;;18.15;70.64;101297.41;4943597;29;19942;-83
2022/07/06 05:53:41;;;;;;;;;;;;;;;18.14;71.71;101304.72;5541176;23;19931;-83
2022/07/06 05:56:08;;;;;;;;;;;;;;;18.20;72.72;101303.78;4944172;29;19907;-83
2022/07/06 05:58:34;;;;;;;;;;;;;;;18.01;71.54;101305.81;4958565;29;20097;-83
2022/07/06 06:29:26;;;;;;;;;;;;;;;18.04;72.58;101320.81;5088361;23;19915;-82
2022/07/06 06:31:51;;;;;;;;;;;;;;;18.07;70.84;101328.53;4945198;29;19923;-82
2022/07/06 06:36:51;;;;;;;;;;;;;;;18.03;70.87;101320.00;5218559;23;19925;-82
2022/07/06 07:20:39;;;;;;;;;;;;;;;18.13;68.61;101345.81;5544820;23;19928;-82
2022/07/06 07:23:05;;;;;;;;;;;;;;;18.04;67.45;101348.88;4931034;29;20346;-83
2022/07/06 07:25:30;;;;;;;;;;;;;;;18.21;68.03;101349.03;4921161;29;19931;-84
2022/07/06 07:30:31;;;;;;;;;;;;;;;18.10;68.85;101349.00;5292318;23;19961;-84
2022/07/06 07:33:00;;;;;;;;;;;;;;;18.20;68.06;101352.81;4969133;29;19954;-84
2022/07/06 07:35:27;;;;;;;;;;;;;;;18.28;67.79;101359.81;4971980;28;19969;-85
2022/07/06 07:37:53;;;;;;;;;;;;;;;17.99;67.19;101353.38;4968797;28;19930;-84
2022/07/06 07:40:20;;;;;;;;;;;;;;;18.07;68.20;101363.91;4978767;28;19922;-84
2022/07/06 07:42:47;;;;;;;;;;;;;;;18.29;67.09;101358.72;4972936;28;19907;-83
2022/07/06 07:45:12;;;;;;;;;;;;;;;18.17;69.44;101369.63;4982251;28;19914;-85
2022/07/06 07:47:38;;;;;;;;;;;;;;;18.29;67.46;101369.63;5507490;23;19927;-83
2022/07/06 07:50:04;;;;;;;;;;;;;;;18.37;67.36;101371.16;4940940;29;19923;-83
2022/07/06 07:52:29;;;;;;;;;;;;;;;18.48;67.00;101370.34;4960446;28;19911;-85
2022/07/06 07:57:30;;;;;;;;;;;;;;;18.33;67.34;101370.81;5075506;23;19924;-84
2022/07/06 08:02:30;;;;;;;;;;;;;;;18.47;64.66;101383.13;5544786;23;19918;-83
2022/07/06 08:17:51;;;;;;;;;;;;;;;18.15;64.90;101390.81;5514952;23;19911;-85
2022/07/06 08:43:34;;;;;;;;;;;;;;;18.25;65.12;101393.78;6032834;23;19918;-80
2022/07/06 08:46:01;;;;;;;;;;;;;;;18.06;65.62;101384.88;4921889;29;19912;-82
2022/07/06 08:48:27;;;;;;;;;;;;;;;17.91;65.84;101381.75;4923230;29;19951;-83
2022/07/06 08:50:54;;;;;;;;;;;;;;;17.75;67.33;101391.44;4904444;29;19923;-80
2022/07/06 08:53:20;;;;;;;;;;;;;;;17.75;67.06;101390.59;4925268;29;19912;-82
2022/07/06 09:13:52;;;;;;;;;;;;;;;17.80;65.87;101418.78;5436958;23;19930;-85
2022/07/06 09:39:56;;;;;;;;;;;;;;;18.43;61.83;101431.00;5817635;23;19932;31
2022/07/06 09:50:07;;;;;;;;;;;;;;;17.84;65.23;101436.31;5979115;23;20956;-81
2022/07/06 10:00:19;;;;;;;;;;;;;;;17.78;67.23;101436.41;5957331;23;19918;-83
2022/07/06 10:02:45;;;;;;;;;;;;;;;18.00;67.83;101437.56;4940528;29;19986;-83
2022/07/06 10:05:10;;;;;;;;;;;;;;;18.07;67.34;101405.59;4956857;29;19922;-80
2022/07/06 10:07:36;;;;;;;;;;;;;;;18.16;69.31;101427.06;4941988;28;19931;-82
2022/07/06 10:10:02;;;;;;;;;;;;;;;18.31;67.88;101427.44;4935729;28;19923;-83
2022/07/06 10:12:28;;;;;;;;;;;;;;;18.26;68.14;101430.84;4943445;29;19942;-83
2022/07/06 10:14:53;;;;;;;;;;;;;;;18.24;71.01;101427.53;4942659;29;19899;-82
2022/07/06 10:17:22;;;;;;;;;;;;;;;18.36;68.69;101433.00;4944062;29;19974;-83
2022/07/06 10:19:49;;;;;;;;;;;;;;;18.43;68.05;101428.25;4939590;29;19914;-83
2022/07/06 10:22:17;;;;;;;;;;;;;;;18.51;68.32;101435.28;4943640;29;19923;-83
2022/07/06 10:24:43;;;;;;;;;;;;;;;18.40;65.70;101444.25;4942364;29;19907;-82
2022/07/06 10:27:10;;;;;;;;;;;;;;;18.52;66.59;101443.22;4943376;29;19906;-84
2022/07/06 10:29:36;;;;;;;;;;;;;;;18.51;65.61;101447.00;4941697;29;19927;-83
2022/07/06 10:32:20;;;;;;;;;;;;;;;18.61;63.60;101440.97;4943443;29;19974;-83
2022/07/06 10:34:46;;;;;;;;;;;;;;;18.40;67.53;101449.72;4942856;29;19930;-82
2022/07/06 10:37:23;;;;;;;;;;;;;;;18.26;67.14;101441.75;4960096;28;19930;-83
2022/07/06 10:42:39;;;;;;;;;;;;;;;18.14;66.22;101438.16;4943481;29;19931;-83
2022/07/06 11:21:22;;;;;;;;;;;;;;;18.16;65.45;101437.97;4908918;23;19910;-82
2022/07/06 11:23:48;;;;;;;;;;;;;;;18.25;64.39;101439.28;4982313;29;19903;-82
2022/07/06 11:26:16;;;;;;;;;;;;;;;18.52;64.30;101445.09;4967521;28;19923;-82
2022/07/06 11:28:42;;;;;;;;;;;;;;;18.64;63.73;101436.91;4962138;28;19941;-83
2022/07/06 11:31:07;;;;;;;;;;;;;;;18.81;62.78;101439.78;4962171;29;19918;-83
2022/07/06 11:33:33;;;;;;;;;;;;;;;18.67;62.42;101439.16;4965246;29;19941;-83
2022/07/06 11:36:17;;;;;;;;;;;;;;;18.64;64.20;101429.59;4982759;28;19914;-82
2022/07/06 11:38:44;;;;;;;;;;;;;;;18.92;61.31;101436.22;4972130;28;19981;-82
2022/07/06 11:41:11;;;;;;;;;;;;;;;18.73;60.99;101436.34;4985883;28;19926;-83
2022/07/06 11:43:37;;;;;;;;;;;;;;;18.86;60.06;101434.44;4984781;28;19965;-82
2022/07/06 11:46:03;;;;;;;;;;;;;;;19.02;60.95;101445.47;5001241;28;19906;-82
2022/07/06 11:48:28;;;;;;;;;;;;;;;18.82;61.00;101442.28;4970744;28;20013;-83
2022/07/06 11:50:58;;;;;;;;;;;;;;;18.54;63.51;101446.53;4965402;29;19937;-81
2022/07/06 11:53:23;;;;;;;;;;;;;;;18.64;61.08;101451.41;4980146;28;19921;-82
2022/07/06 11:55:48;;;;;;;;;;;;;;;18.61;61.30;101434.66;4965265;29;19915;-82
2022/07/06 11:58:14;;;;;;;;;;;;;;;18.58;61.97;101444.16;4964690;29;19911;-82
2022/07/06 12:00:40;;;;;;;;;;;;;;;18.83;61.12;101441.22;4965733;29;19922;-82
2022/07/06 12:03:05;;;;;;;;;;;;;;;18.67;59.55;101434.53;4981500;29;19942;-82
2022/07/06 12:05:31;;;;;;;;;;;;;;;18.68;59.11;101443.56;4964234;29;19922;-83
2022/07/06 12:08:05;;;;;;;;;;;;;;;18.70;60.00;101435.97;4981970;28;19914;-82
2022/07/06 12:10:33;;;;;;;;;;;;;;;18.64;61.04;101437.78;4963738;29;19961;-82
2022/07/06 12:13:02;;;;;;;;;;;;;;;18.92;63.62;101442.50;4981848;29;19934;-82
2022/07/06 12:15:28;;;;;;;;;;;;;;;18.90;63.41;101435.63;4965213;29;19957;-83
2022/07/06 12:17:53;;;;;;;;;;;;;;;18.87;62.71;101427.91;4965010;29;19907;-83
2022/07/06 12:20:19;;;;;;;;;;;;;;;18.88;62.12;101429.59;4956227;29;19922;-82
2022/07/06 12:22:44;;;;;;;;;;;;;;;19.00;63.01;101433.94;4964606;29;19969;-82
2022/07/06 12:25:09;;;;;;;;;;;;;;;18.99;64.05;101426.84;4981169;28;19950;-83
2022/07/06 12:27:35;;;;;;;;;;;;;;;18.96;63.56;101427.31;4965091;28;19994;-82
2022/07/06 12:30:10;;;;;;;;;;;;;;;18.89;63.19;101429.34;4966648;28;19899;-83
2022/07/06 12:32:36;;;;;;;;;;;;;;;18.85;61.91;101433.63;4980790;28;19913;-82
2022/07/06 12:35:04;;;;;;;;;;;;;;;18.95;60.95;101419.38;4996453;28;19958;-83
2022/07/06 12:37:30;;;;;;;;;;;;;;;19.08;62.45;101432.75;4999963;28;19913;-82
2022/07/06 12:39:55;;;;;;;;;;;;;;;18.99;63.43;101423.28;5000574;28;19922;-82
2022/07/06 12:42:21;;;;;;;;;;;;;;;18.99;63.91;101421.38;4982114;28;20275;-82
2022/07/06 12:50:05;;;;;;;;;;;;;;;19.08;66.68;101423.75;5538928;23;19930;-83
2022/07/06 12:52:30;;;;;;;;;;;;;;;19.13;68.64;101427.41;4982807;28;19913;-83
2022/07/06 12:54:59;;;;;;;;;;;;;;;19.04;69.50;101436.19;4967623;28;19977;-82
2022/07/06 12:57:26;;;;;;;;;;;;;;;19.02;71.90;101422.81;4995509;28;19907;-82
2022/07/06 12:59:54;;;;;;;;;;;;;;;17.91;72.45;101251.09;4981640;28;19942;-83
2022/07/06 13:02:27;;;;;;;;;;;;;;;19.04;67.18;101414.38;4982712;28;19934;-82
2022/07/06 13:04:58;;;;;;;;;;;;;;;18.99;64.87;101426.00;4982328;28;19906;-83
2022/07/06 13:07:24;;;;;;;;;;;;;;;19.15;65.52;101417.09;4981461;28;19906;-82
2022/07/06 13:09:49;;;;;;;;;;;;;;;19.33;66.54;101415.25;4994103;28;19929;-82
2022/07/06 13:12:15;;;;;;;;;;;;;;;19.32;65.67;101417.16;4976817;28;19913;-82
2022/07/06 13:14:41;;;;;;;;;;;;;;;19.20;66.44;101422.66;4971813;28;19938;-83
2022/07/06 13:17:06;;;;;;;;;;;;;;;18.99;66.83;101417.84;4964388;29;19906;-82
2022/07/06 13:19:32;;;;;;;;;;;;;;;18.92;67.06;101428.06;4980568;28;19986;-83
2022/07/06 13:21:57;;;;;;;;;;;;;;;18.95;67.55;101428.41;4981230;28;19981;-82
2022/07/06 13:24:23;;;;;;;;;;;;;;;19.04;67.46;101406.19;4974576;28;19933;-83
2022/07/06 13:26:48;;;;;;;;;;;;;;;19.19;68.52;101423.72;4984641;28;19938;-82
2022/07/06 13:29:14;;;;;;;;;;;;;;;19.22;69.95;101419.69;4979908;28;19927;-82
2022/07/06 13:31:40;;;;;;;;;;;;;;;19.18;69.63;101419.34;4991395;28;19898;-82
2022/07/06 13:34:05;;;;;;;;;;;;;;;19.13;68.70;101415.66;4982772;28;19925;-82
2022/07/06 13:36:32;;;;;;;;;;;;;;;19.15;69.13;101416.25;4995946;28;19906;-80
2022/07/06 13:38:57;;;;;;;;;;;;;;;19.05;70.47;101416.06;4982643;28;19910;-82
2022/07/06 13:41:23;;;;;;;;;;;;;;;19.22;70.00;101406.03;4982486;28;19922;-82
2022/07/06 13:43:48;;;;;;;;;;;;;;;19.20;69.80;101403.56;4992207;28;20009;-80
2022/07/06 13:46:16;;;;;;;;;;;;;;;19.24;69.58;101404.72;4988345;28;19915;-83
2022/07/06 13:48:41;;;;;;;;;;;;;;;19.18;73.78;101405.69;4987285;28;19922;-82
2022/07/06 13:53:57;;;;;;;;;;;;;;;19.28;74.90;101401.53;5461238;23;19933;-81
2022/07/06 14:06:43;;;;;;;;;;;;;;;19.05;72.63;101395.06;5198390;23;19927;-82
2022/07/06 14:19:29;;;;;;;;;;;;;;;18.95;67.27;101403.84;5044592;23;19916;-83
2022/07/06 14:21:54;;;;;;;;;;;;;;;18.90;64.88;101400.19;4925210;29;19930;-83
2022/07/06 14:24:19;;;;;;;;;;;;;;;18.99;62.01;101388.66;4924505;29;19923;-84
2022/07/06 14:26:45;;;;;;;;;;;;;;;18.99;61.33;101382.38;4925277;29;19962;-83
2022/07/06 14:29:10;;;;;;;;;;;;;;;18.98;59.08;101378.00;4941327;29;19943;-82
2022/07/06 14:31:36;;;;;;;;;;;;;;;18.96;54.91;101388.31;4941863;29;19958;-82
2022/07/06 14:50:17;;;;;;;;;;;;;;;19.20;66.89;101411.75;5841977;23;19932;-80
2022/07/06 14:55:46;;;;;;;;;;;;;;;19.16;66.10;101407.00;5905543;23;19906;-83
2022/07/06 14:58:11;;;;;;;;;;;;;;;19.13;67.81;101407.47;4998671;28;19945;-82
2022/07/06 15:00:37;;;;;;;;;;;;;;;19.21;67.71;101397.03;4985282;28;19902;-83
2022/07/06 15:03:02;;;;;;;;;;;;;;;19.12;68.53;101401.19;4997227;28;19917;-83
2022/07/06 15:05:28;;;;;;;;;;;;;;;19.11;68.12;101406.91;4983847;28;19918;-85
2022/07/06 15:07:55;;;;;;;;;;;;;;;19.06;66.89;101398.59;5176989;23;20256;-81
2022/07/06 15:10:21;;;;;;;;;;;;;;;19.10;65.72;101389.69;5060848;23;19919;-82
2022/07/06 15:15:18;;;;;;;;;;;;;;;19.20;69.39;101387.19;4980183;28;19911;-83
2022/07/06 15:17:44;;;;;;;;;;;;;;;18.99;69.33;101379.66;5198546;23;19923;-83
2022/07/06 15:20:11;;;;;;;;;;;;;;;19.05;68.72;101381.41;4931570;29;19914;-81
2022/07/06 15:22:36;;;;;;;;;;;;;;;19.04;68.71;101385.22;4964397;28;19913;-83
2022/07/06 15:25:19;;;;;;;;;;;;;;;19.15;68.25;101378.06;5571786;23;19925;31
2022/07/06 15:30:33;;;;;;;;;;;;;;;19.30;65.53;101372.91;5244616;23;19978;-81
2022/07/06 15:32:59;;;;;;;;;;;;;;;19.25;66.88;101365.44;4927839;29;19911;-81
2022/07/06 15:35:24;;;;;;;;;;;;;;;19.34;66.96;101360.44;4928095;29;19982;-80
2022/07/06 15:37:50;;;;;;;;;;;;;;;19.18;67.85;101348.41;4935841;29;19918;-81
2022/07/06 15:40:23;;;;;;;;;;;;;;;19.22;67.03;101349.56;4949043;29;19907;-82
2022/07/06 15:42:50;;;;;;;;;;;;;;;19.16;66.75;101350.53;4951038;29;19934;-82
2022/07/06 15:45:17;;;;;;;;;;;;;;;19.37;65.38;101346.31;4941771;29;19960;-80
2022/07/06 15:47:43;;;;;;;;;;;;;;;19.50;64.56;101342.44;4961881;29;19931;-83
2022/07/06 15:50:18;;;;;;;;;;;;;;;19.43;64.03;101336.31;4941564;29;19974;-82
2022/07/06 15:52:49;;;;;;;;;;;;;;;19.52;64.44;101325.81;4956680;29;19911;-82
2022/07/06 15:55:14;;;;;;;;;;;;;;;19.52;64.34;101329.38;4949397;29;19915;-82
2022/07/06 15:57:40;;;;;;;;;;;;;;;19.65;64.00;101326.38;4942749;29;19925;-83
2022/07/06 16:00:06;;;;;;;;;;;;;;;19.65;63.51;101326.38;4948998;29;19907;-85
2022/07/06 16:02:31;;;;;;;;;;;;;;;19.56;63.91;101319.63;5157716;23;19934;-84
2022/07/06 16:04:57;;;;;;;;;;;;;;;19.31;64.86;101319.19;4936711;28;19923;-83
2022/07/06 16:07:22;;;;;;;;;;;;;;;19.14;64.75;101321.84;4955832;29;19989;-82
2022/07/06 16:17:33;;;;;;;;;;;;;;;19.61;64.78;101300.59;5345705;23;19935;-83
2022/07/06 16:19:59;;;;;;;;;;;;;;;19.60;64.57;101298.09;5262710;23;19946;-82
2022/07/06 16:22:25;;;;;;;;;;;;;;;19.68;65.15;101300.47;4965042;28;19913;-81
2022/07/06 16:45:31;;;;;;;;;;;;;;;19.86;66.70;101259.25;5837800;23;19925;-81
2022/07/06 16:47:57;;;;;;;;;;;;;;;19.83;65.35;101256.19;4965448;28;19953;-84
2022/07/06 16:50:23;;;;;;;;;;;;;;;19.49;66.18;101256.16;5156524;23;19927;-81
2022/07/06 18:00:32;;;;;;;;;;;;;;;18.58;73.55;101163.44;5798109;23;19917;-83
2022/07/06 18:21:04;;;;;;;;;;;;;;;18.47;72.41;101131.59;5994491;23;20719;-80
2022/07/06 18:29:10;;;;;;;;;;;;;;;18.72;72.33;101123.09;5226914;23;19911;-82
2022/07/06 20:01:02;;;;;;;;;;;;;;;15.81;100.00;101035.53;5663751;23;19946;-80
2022/07/06 20:03:30;;;;;;;;;;;;;;;15.77;100.00;101026.22;4944801;29;20424;-84
2022/07/06 20:25:24;;;;;;;;;;;;;;;15.47;100.00;100996.28;5668021;23;20713;-79
2022/07/06 20:27:50;;;;;;;;;;;;;;;15.47;100.00;100996.28;5826622;23;20024;-80
2022/07/06 20:48:15;;;;;;;;;;;;;;;15.33;100.00;100963.09;4948746;29;19913;-83
2022/07/06 20:53:16;;;;;;;;;;;;;;;15.35;100.00;100958.25;5014640;23;19919;-82
2022/07/06 20:55:41;;;;;;;;;;;;;;;15.31;100.00;100950.81;4929540;29;19912;-82
2022/07/06 20:58:10;;;;;;;;;;;;;;;15.30;100.00;100949.97;4920825;29;19907;-82
2022/07/06 21:00:35;;;;;;;;;;;;;;;15.32;100.00;100942.44;4947538;29;19914;-82
2022/07/06 21:03:01;;;;;;;;;;;;;;;15.36;100.00;100940.91;4912972;29;19928;-83
2022/07/06 21:05:27;;;;;;;;;;;;;;;15.31;100.00;100935.34;4908279;29;19909;-83
2022/07/06 21:07:52;;;;;;;;;;;;;;;15.31;100.00;100938.06;4913125;29;19907;-82
2022/07/06 21:30:59;;;;;;;;;;;;;;;15.45;100.00;100911.59;5923317;23;19917;-82
2022/07/06 21:33:26;;;;;;;;;;;;;;;15.46;100.00;100900.56;4929750;29;19970;-83
2022/07/06 21:43:37;;;;;;;;;;;;;;;15.56;100.00;100888.31;5908937;23;19922;-80
